createdAt,value
2019-05-26T00:02:45.037Z,10.80
2019-05-26T00:05:32.883Z,10.70
2019-05-26T00:08:20.581Z,10.70
2019-05-26T00:11:08.718Z,10.70
2019-05-26T00:13:56.573Z,10.70
2019-05-26T00:16:44.256Z,10.60
2019-05-26T00:19:32.211Z,10.60
2019-05-26T00:22:20.239Z,10.60
2019-05-26T00:25:08.849Z,10.50
2019-05-26T00:27:56.618Z,10.40
2019-05-26T00:30:44.498Z,10.40
2019-05-26T00:33:32.325Z,10.30
2019-05-26T00:36:20.178Z,10.30
2019-05-26T00:39:07.902Z,10.10
2019-05-26T00:41:55.749Z,10.10
2019-05-26T00:44:43.590Z,10.10
2019-05-26T00:47:31.465Z,10.10
2019-05-26T00:50:19.497Z,10.20
2019-05-26T00:53:07.289Z,10.20
2019-05-26T00:55:54.989Z,10.10
2019-05-26T00:58:43.046Z,10.10
2019-05-26T01:01:30.696Z,10.00
2019-05-26T01:04:18.727Z,10.00
2019-05-26T01:07:06.658Z,10.00
2019-05-26T01:09:54.453Z,10.00
2019-05-26T01:12:42.310Z,9.90
2019-05-26T01:15:30.136Z,9.80
2019-05-26T01:18:18.165Z,9.80
2019-05-26T01:21:05.641Z,9.80
2019-05-26T01:23:53.614Z,9.70
2019-05-26T01:26:41.725Z,9.70
2019-05-26T01:29:29.420Z,9.70
2019-05-26T01:32:17.311Z,9.60
2019-05-26T01:35:07.633Z,9.60
2019-05-26T01:37:55.589Z,9.50
2019-05-26T01:40:44.465Z,9.60
2019-05-26T01:43:31.973Z,9.50
2019-05-26T01:46:19.883Z,9.60
2019-05-26T01:49:07.682Z,9.50
2019-05-26T01:51:55.820Z,9.50
2019-05-26T01:54:43.528Z,9.50
2019-05-26T01:57:31.398Z,9.50
2019-05-26T02:00:19.489Z,9.40
2019-05-26T02:03:07.312Z,9.40
2019-05-26T02:05:55.258Z,9.40
2019-05-26T02:08:43.222Z,9.40
2019-05-26T02:11:31.204Z,9.40
2019-05-26T02:14:19.210Z,9.30
2019-05-26T02:17:06.853Z,9.30
2019-05-26T02:19:54.698Z,9.30
2019-05-26T02:22:42.517Z,9.30
2019-05-26T02:25:30.370Z,9.20
2019-05-26T02:28:17.931Z,9.20
2019-05-26T02:31:05.899Z,9.10
2019-05-26T02:33:53.723Z,9.10
2019-05-26T02:36:41.702Z,9.10
2019-05-26T02:39:29.605Z,9.10
2019-05-26T02:42:17.556Z,9.10
2019-05-26T02:45:08.505Z,9.10
2019-05-26T02:47:56.643Z,9.10
2019-05-26T02:50:44.764Z,9.20
2019-05-26T02:53:32.705Z,9.10
2019-05-26T02:56:21.225Z,9.10
2019-05-26T02:59:09.014Z,9.10
2019-05-26T03:02:03.554Z,9.10
2019-05-26T03:04:47.647Z,9.10
2019-05-26T03:07:37.934Z,9.10
2019-05-26T03:10:25.641Z,9.00
2019-05-26T03:13:15.039Z,9.00
2019-05-26T03:16:04.691Z,8.90
2019-05-26T03:18:52.803Z,8.90
2019-05-26T03:21:42.509Z,8.80
2019-05-26T03:24:31.758Z,8.80
2019-05-26T03:27:19.739Z,8.80
2019-05-26T03:30:08.642Z,8.70
2019-05-26T03:32:56.610Z,8.70
2019-05-26T03:35:44.519Z,8.70
2019-05-26T03:38:32.511Z,8.70
2019-05-26T03:41:20.229Z,8.60
2019-05-26T03:44:08.453Z,8.60
2019-05-26T03:46:56.090Z,8.60
2019-05-26T03:49:43.750Z,8.60
2019-05-26T03:52:31.589Z,8.60
2019-05-26T03:55:19.628Z,8.50
2019-05-26T03:58:07.555Z,8.60
2019-05-26T04:00:55.373Z,8.60
2019-05-26T04:03:43.386Z,8.60
2019-05-26T04:06:31.385Z,8.70
2019-05-26T04:09:19.237Z,8.80
2019-05-26T04:12:07.066Z,8.80
2019-05-26T04:14:55.082Z,8.80
2019-05-26T04:17:43.047Z,8.90
2019-05-26T04:20:30.968Z,9.10
2019-05-26T04:23:18.641Z,9.10
2019-05-26T04:26:06.631Z,9.20
2019-05-26T04:28:54.449Z,9.30
2019-05-26T04:31:42.122Z,9.20
2019-05-26T04:34:30.115Z,9.30
2019-05-26T04:37:18.170Z,9.40
2019-05-26T04:40:25.605Z,9.50
2019-05-26T04:42:59.370Z,9.60
2019-05-26T04:45:46.926Z,9.60
2019-05-26T04:48:34.794Z,9.80
2019-05-26T04:51:22.843Z,9.90
2019-05-26T04:54:10.885Z,10.00
2019-05-26T04:56:58.855Z,10.10
2019-05-26T04:59:46.530Z,10.20
2019-05-26T05:02:34.534Z,10.50
2019-05-26T05:05:22.344Z,10.60
2019-05-26T05:08:10.151Z,10.80
2019-05-26T05:10:58.006Z,11.20
2019-05-26T05:13:46.085Z,12.10
2019-05-26T05:16:33.969Z,13.20
2019-05-26T05:19:21.849Z,14.10
2019-05-26T05:22:09.721Z,14.10
2019-05-26T05:24:57.452Z,14.80
2019-05-26T05:27:45.891Z,15.60
2019-05-26T05:30:33.661Z,16.40
2019-05-26T05:33:21.725Z,16.90
2019-05-26T05:36:09.432Z,17.50
2019-05-26T05:38:56.974Z,18.90
2019-05-26T05:41:44.652Z,18.90
2019-05-26T05:44:32.670Z,19.40
2019-05-26T05:47:20.982Z,19.60
2019-05-26T05:50:11.705Z,19.70
2019-05-26T05:52:59.296Z,19.70
2019-05-26T05:55:47.192Z,19.40
2019-05-26T05:58:35.142Z,18.80
2019-05-26T06:01:22.950Z,18.10
2019-05-26T06:04:10.645Z,17.40
2019-05-26T06:06:58.313Z,16.90
2019-05-26T06:09:46.101Z,16.20
2019-05-26T06:12:34.211Z,16.10
2019-05-26T06:15:22.081Z,15.90
2019-05-26T06:18:09.950Z,15.70
2019-05-26T06:20:57.782Z,15.50
2019-05-26T06:23:45.765Z,15.50
2019-05-26T06:26:33.732Z,15.40
2019-05-26T06:29:21.659Z,15.30
2019-05-26T06:32:09.754Z,15.30
2019-05-26T06:34:58.024Z,15.40
2019-05-26T06:37:45.954Z,15.40
2019-05-26T06:40:33.809Z,15.40
2019-05-26T06:43:21.706Z,15.50
2019-05-26T06:46:09.711Z,15.70
2019-05-26T06:48:57.430Z,16.00
2019-05-26T06:51:45.485Z,16.00
2019-05-26T06:54:33.389Z,16.10
2019-05-26T06:57:20.950Z,16.40
2019-05-26T07:00:09.465Z,16.60
2019-05-26T07:02:57.186Z,16.70
2019-05-26T07:05:45.261Z,16.90
2019-05-26T07:08:33.358Z,16.90
2019-05-26T07:11:21.208Z,16.90
2019-05-26T07:14:09.213Z,16.80
2019-05-26T07:16:57.078Z,16.80
2019-05-26T07:19:45.160Z,17.00
2019-05-26T07:22:32.944Z,17.00
2019-05-26T07:25:20.976Z,17.10
2019-05-26T07:28:09.002Z,17.20
2019-05-26T07:30:56.877Z,17.40
2019-05-26T07:33:44.966Z,17.70
2019-05-26T07:36:32.608Z,17.70
2019-05-26T07:39:20.637Z,18.00
2019-05-26T07:42:10.950Z,18.10
2019-05-26T07:44:58.613Z,18.30
2019-05-26T07:47:46.479Z,18.40
2019-05-26T07:50:34.174Z,18.60
2019-05-26T07:53:22.081Z,18.60
2019-05-26T07:56:10.011Z,18.70
2019-05-26T07:58:57.646Z,18.80
2019-05-26T08:01:45.581Z,18.80
2019-05-26T08:04:33.831Z,18.80
2019-05-26T08:07:23.177Z,18.90
2019-05-26T08:10:11.628Z,19.00
2019-05-26T08:12:59.280Z,19.20
2019-05-26T08:15:47.175Z,19.20
2019-05-26T08:18:34.759Z,19.30
2019-05-26T08:21:22.421Z,19.40
2019-05-26T08:24:10.122Z,19.40
2019-05-26T08:26:57.934Z,19.50
2019-05-26T08:29:45.984Z,19.60
2019-05-26T08:32:33.879Z,19.60
2019-05-26T08:35:21.730Z,19.60
2019-05-26T08:38:22.215Z,19.60
2019-05-26T08:41:09.940Z,19.70
2019-05-26T08:43:57.950Z,19.70
2019-05-26T08:46:46.202Z,19.60
2019-05-26T08:49:34.192Z,19.70
2019-05-26T08:52:22.132Z,19.70
2019-05-26T08:55:10.200Z,19.90
2019-05-26T08:57:58.058Z,19.90
2019-05-26T09:00:46.009Z,20.00
2019-05-26T09:03:33.953Z,20.00
2019-05-26T09:06:21.750Z,20.00
2019-05-26T09:09:09.598Z,20.20
2019-05-26T09:11:57.605Z,20.20
2019-05-26T09:14:45.145Z,20.10
2019-05-26T09:17:32.990Z,20.20
2019-05-26T09:20:21.829Z,20.20
2019-05-26T09:23:09.456Z,20.20
2019-05-26T09:25:57.391Z,20.50
2019-05-26T09:28:45.342Z,20.60
2019-05-26T09:31:34.231Z,20.60
2019-05-26T09:34:22.249Z,20.60
2019-05-26T09:37:10.173Z,20.60
2019-05-26T09:39:58.181Z,20.60
2019-05-26T09:42:45.984Z,20.70
2019-05-26T09:45:33.697Z,20.70
2019-05-26T09:48:21.339Z,20.80
2019-05-26T09:51:09.043Z,21.00
2019-05-26T09:54:01.750Z,21.20
2019-05-26T09:56:46.943Z,21.30
2019-05-26T09:59:34.909Z,21.50
2019-05-26T10:02:22.719Z,21.50
2019-05-26T10:05:10.742Z,21.60
2019-05-26T10:07:58.669Z,21.70
2019-05-26T10:10:46.427Z,21.70
2019-05-26T10:13:34.335Z,21.70
2019-05-26T10:16:22.105Z,21.60
2019-05-26T10:19:09.845Z,21.40
2019-05-26T10:21:57.493Z,21.50
2019-05-26T10:24:45.454Z,21.60
2019-05-26T10:27:33.214Z,21.70
2019-05-26T10:30:21.063Z,21.80
2019-05-26T10:33:08.958Z,21.90
2019-05-26T10:35:56.931Z,21.90
2019-05-26T10:38:44.961Z,22.00
2019-05-26T10:41:32.957Z,22.10
2019-05-26T10:44:20.792Z,22.30
2019-05-26T10:47:08.725Z,22.40
2019-05-26T10:49:56.330Z,22.70
2019-05-26T10:52:44.094Z,22.80
2019-05-26T10:55:31.689Z,23.10
2019-05-26T10:58:19.346Z,23.30
2019-05-26T11:01:07.492Z,23.40
2019-05-26T11:03:55.491Z,23.40
2019-05-26T11:06:43.486Z,23.60
2019-05-26T11:09:32.568Z,23.90
2019-05-26T11:12:20.569Z,23.90
2019-05-26T11:15:09.236Z,23.80
2019-05-26T11:17:56.944Z,23.90
2019-05-26T11:20:44.893Z,23.90
2019-05-26T11:23:32.863Z,23.80
2019-05-26T11:26:20.646Z,23.60
2019-05-26T11:29:09.037Z,23.50
2019-05-26T11:31:56.772Z,23.50
2019-05-26T11:34:58.919Z,23.40
2019-05-26T11:37:34.488Z,23.30
2019-05-26T11:40:22.837Z,23.10
2019-05-26T11:43:16.652Z,23.10
2019-05-26T11:46:00.213Z,23.00
2019-05-26T11:48:47.957Z,22.90
2019-05-26T11:51:35.852Z,22.60
2019-05-26T11:54:23.857Z,22.60
2019-05-26T11:57:11.514Z,22.70
2019-05-26T11:59:59.541Z,23.10
2019-05-26T12:02:47.255Z,23.20
2019-05-26T12:05:35.115Z,23.50
2019-05-26T12:08:23.077Z,23.70
2019-05-26T12:11:11.114Z,23.70
2019-05-26T12:13:58.749Z,23.70
2019-05-26T12:16:46.369Z,23.80
2019-05-26T12:19:34.186Z,24.10
2019-05-26T12:22:22.229Z,24.20
2019-05-26T12:25:10.452Z,24.30
2019-05-26T12:27:58.444Z,24.30
2019-05-26T12:30:46.141Z,24.70
2019-05-26T12:33:34.100Z,24.90
2019-05-26T12:36:22.059Z,25.00
2019-05-26T12:39:10.069Z,24.70
2019-05-26T12:41:58.007Z,24.70
2019-05-26T12:44:49.615Z,24.50
2019-05-26T12:47:36.249Z,24.50
2019-05-26T12:50:24.129Z,24.50
2019-05-26T12:53:12.144Z,24.50
2019-05-26T12:55:59.919Z,24.50
2019-05-26T12:58:47.980Z,24.60
2019-05-26T13:01:35.853Z,24.60
2019-05-26T13:04:23.588Z,24.60
2019-05-26T13:07:11.509Z,24.60
2019-05-26T13:09:59.217Z,24.50
2019-05-26T13:12:47.057Z,24.50
2019-05-26T13:15:34.733Z,24.50
2019-05-26T13:18:22.998Z,24.60
2019-05-26T13:21:11.065Z,24.20
2019-05-26T13:23:58.879Z,23.90
2019-05-26T13:26:46.438Z,23.70
2019-05-26T13:29:34.302Z,23.60
2019-05-26T13:32:21.977Z,23.60
2019-05-26T13:35:10.138Z,23.70
2019-05-26T13:37:58.030Z,23.90
2019-05-26T13:40:46.028Z,24.10
2019-05-26T13:43:33.668Z,24.30
2019-05-26T13:46:21.626Z,24.30
2019-05-26T13:49:09.325Z,24.20
2019-05-26T13:51:57.413Z,24.20
2019-05-26T13:54:45.059Z,24.20
2019-05-26T13:57:32.968Z,24.20
2019-05-26T14:00:22.889Z,24.40
2019-05-26T14:03:10.827Z,24.50
2019-05-26T14:05:58.582Z,24.60
2019-05-26T14:08:46.469Z,24.70
2019-05-26T14:11:34.345Z,24.70
2019-05-26T14:14:22.405Z,24.60
2019-05-26T14:17:11.981Z,24.60
2019-05-26T14:20:01.322Z,24.40
2019-05-26T14:22:49.317Z,24.30
2019-05-26T14:25:37.335Z,24.20
2019-05-26T14:28:25.274Z,24.30
2019-05-26T14:31:13.131Z,24.30
2019-05-26T14:34:01.138Z,24.40
2019-05-26T14:39:36.425Z,24.20
2019-05-26T14:42:24.332Z,24.20
2019-05-26T14:45:12.458Z,24.30
2019-05-26T14:48:00.225Z,24.40
2019-05-26T14:50:48.241Z,24.50
2019-05-26T14:53:35.949Z,24.50
2019-05-26T14:56:23.653Z,24.50
2019-05-26T14:59:11.716Z,24.20
2019-05-26T15:01:59.475Z,24.20
2019-05-26T15:04:47.240Z,24.10
2019-05-26T15:07:35.538Z,24.10
2019-05-26T15:10:23.642Z,24.00
2019-05-26T15:13:11.741Z,24.00
2019-05-26T15:16:09.239Z,23.60
2019-05-26T15:18:48.985Z,23.40
2019-05-26T15:21:36.925Z,23.30
2019-05-26T15:24:24.909Z,23.50
2019-05-26T15:27:12.585Z,23.60
2019-05-26T15:30:00.435Z,23.70
2019-05-26T15:32:48.317Z,23.70
2019-05-26T15:35:36.519Z,23.60
2019-05-26T15:38:24.526Z,23.60
2019-05-26T15:41:12.326Z,23.50
2019-05-26T15:44:00.246Z,23.40
2019-05-26T15:46:48.337Z,23.30
2019-05-26T15:49:36.337Z,23.30
2019-05-26T15:52:24.017Z,23.30
2019-05-26T15:55:12.577Z,23.20
2019-05-26T15:58:00.461Z,23.00
2019-05-26T16:00:48.259Z,22.90
2019-05-26T16:03:36.169Z,22.90
2019-05-26T16:06:23.821Z,23.00
2019-05-26T16:09:11.849Z,23.10
2019-05-26T16:11:59.891Z,23.10
2019-05-26T16:14:47.682Z,23.20
2019-05-26T16:17:38.556Z,23.20
2019-05-26T16:20:24.975Z,23.20
2019-05-26T16:23:13.118Z,23.30
2019-05-26T16:26:01.065Z,23.20
2019-05-26T16:28:48.917Z,23.10
2019-05-26T16:31:36.617Z,22.90
2019-05-26T16:34:24.713Z,22.90
2019-05-26T16:37:12.525Z,22.80
2019-05-26T16:40:00.495Z,22.70
2019-05-26T16:42:48.185Z,22.70
2019-05-26T16:45:37.117Z,22.70
2019-05-26T16:48:25.401Z,22.60
2019-05-26T16:51:13.461Z,22.50
2019-05-26T16:54:01.413Z,22.60
2019-05-26T16:56:49.602Z,22.60
2019-05-26T16:59:37.274Z,22.40
2019-05-26T17:02:25.159Z,22.40
2019-05-26T17:05:14.322Z,22.20
2019-05-26T17:08:02.406Z,22.00
2019-05-26T17:10:50.041Z,21.80
2019-05-26T17:13:37.821Z,21.70
2019-05-26T17:16:26.005Z,21.60
2019-05-26T17:19:13.916Z,21.30
2019-05-26T17:22:01.684Z,21.20
2019-05-26T17:24:49.501Z,21.20
2019-05-26T17:27:37.274Z,21.10
2019-05-26T17:30:25.376Z,21.00
2019-05-26T17:33:13.174Z,21.00
2019-05-26T17:36:01.122Z,20.90
2019-05-26T17:38:50.671Z,20.80
2019-05-26T17:41:38.427Z,20.70
2019-05-26T17:44:26.369Z,20.70
2019-05-26T17:47:28.875Z,20.70
2019-05-26T17:50:06.465Z,20.70
2019-05-26T17:52:54.313Z,20.80
2019-05-26T17:55:43.056Z,20.80
2019-05-26T17:58:30.792Z,20.80
2019-05-26T18:01:18.700Z,20.80
2019-05-26T18:04:06.564Z,20.80
2019-05-26T18:06:54.536Z,20.70
2019-05-26T18:09:44.639Z,20.60
2019-05-26T18:12:31.749Z,20.60
2019-05-26T18:15:19.790Z,20.50
2019-05-26T18:18:07.377Z,20.40
2019-05-26T18:20:55.421Z,20.30
2019-05-26T18:23:43.241Z,20.20
2019-05-26T18:26:34.696Z,20.10
2019-05-26T18:29:22.732Z,20.10
2019-05-26T18:32:10.584Z,20.10
2019-05-26T18:34:58.482Z,20.00
2019-05-26T18:37:46.048Z,20.00
2019-05-26T18:40:33.736Z,19.90
2019-05-26T18:43:21.802Z,19.80
2019-05-26T18:46:09.459Z,19.80
2019-05-26T18:51:44.990Z,19.60
2019-05-26T18:54:32.760Z,19.50
2019-05-26T18:57:20.297Z,19.40
2019-05-26T19:00:10.542Z,19.20
2019-05-26T19:02:58.371Z,19.10
2019-05-26T19:05:46.301Z,19.10
2019-05-26T19:08:34.201Z,18.90
2019-05-26T19:11:21.904Z,18.70
2019-05-26T19:14:09.816Z,18.60
2019-05-26T19:16:57.743Z,18.40
2019-05-26T19:19:45.677Z,18.20
2019-05-26T19:22:33.526Z,18.10
2019-05-26T19:25:21.478Z,18.00
2019-05-26T19:28:09.597Z,17.80
2019-05-26T19:30:57.480Z,17.60
2019-05-26T19:33:45.078Z,17.50
2019-05-26T19:36:32.733Z,17.40
2019-05-26T19:39:20.933Z,17.10
2019-05-26T19:42:08.918Z,17.10
2019-05-26T19:44:56.636Z,17.00
2019-05-26T19:47:44.551Z,16.90
2019-05-26T19:50:32.389Z,16.70
2019-05-26T19:53:20.343Z,16.60
2019-05-26T19:56:08.148Z,16.50
2019-05-26T19:58:56.021Z,16.40
2019-05-26T20:01:44.101Z,16.30
2019-05-26T20:04:31.629Z,16.20
2019-05-26T20:07:19.341Z,16.10
2019-05-26T20:10:08.285Z,16.00
2019-05-26T20:12:56.324Z,15.90
2019-05-26T20:15:44.419Z,15.80
2019-05-26T20:18:32.041Z,15.70
2019-05-26T20:21:19.797Z,15.60
2019-05-26T20:24:08.012Z,15.60
2019-05-26T20:26:55.839Z,15.50
2019-05-26T20:29:43.545Z,15.40
2019-05-26T20:32:31.259Z,15.40
2019-05-26T20:35:19.383Z,15.30
2019-05-26T20:38:10.746Z,15.30
2019-05-26T20:40:56.969Z,15.20
2019-05-26T20:43:44.806Z,15.20
2019-05-26T20:46:32.901Z,15.20
2019-05-26T20:49:20.745Z,15.10
2019-05-26T20:52:08.353Z,15.10
2019-05-26T20:54:56.111Z,15.00
2019-05-26T20:57:44.406Z,15.00
2019-05-26T21:00:32.289Z,14.90
2019-05-26T21:03:20.174Z,14.80
2019-05-26T21:06:08.121Z,14.80
2019-05-26T21:08:55.973Z,14.70
2019-05-26T21:11:44.141Z,14.70
2019-05-26T21:14:31.745Z,14.60
2019-05-26T21:17:19.723Z,14.60
2019-05-26T21:20:08.193Z,14.40
2019-05-26T21:22:55.890Z,14.40
2019-05-26T21:25:43.787Z,14.20
2019-05-26T21:28:31.665Z,14.20
2019-05-26T21:31:19.797Z,14.10
2019-05-26T21:34:07.768Z,14.00
2019-05-26T21:36:55.721Z,13.90
2019-05-26T21:39:43.967Z,13.90
2019-05-26T21:42:31.902Z,13.90
2019-05-26T21:45:20.225Z,13.80
2019-05-26T21:48:07.784Z,13.70
2019-05-26T21:50:55.555Z,13.70
2019-05-26T21:53:43.513Z,13.70
2019-05-26T21:56:31.234Z,13.60
2019-05-26T21:59:19.193Z,13.50
2019-05-26T22:02:07.316Z,13.50
2019-05-26T22:04:55.191Z,13.40
2019-05-26T22:07:43.286Z,13.30
2019-05-26T22:10:31.229Z,13.30
2019-05-26T22:13:19.157Z,13.20
2019-05-26T22:16:07.210Z,13.10
2019-05-26T22:18:55.161Z,13.10
2019-05-26T22:21:43.090Z,12.90
2019-05-26T22:24:30.790Z,12.90
2019-05-26T22:27:18.648Z,12.80
2019-05-26T22:30:09.864Z,12.80
2019-05-26T22:32:57.629Z,12.70
2019-05-26T22:35:45.501Z,12.70
2019-05-26T22:38:33.473Z,12.60
2019-05-26T22:41:21.525Z,12.60
2019-05-26T22:44:09.285Z,12.50
2019-05-26T22:46:56.962Z,12.40
2019-05-26T22:49:44.848Z,12.40
2019-05-26T22:52:32.865Z,12.40
2019-05-26T22:55:20.716Z,12.30
2019-05-26T22:58:08.601Z,12.30
2019-05-26T23:00:56.480Z,12.30
2019-05-26T23:03:44.633Z,12.20
2019-05-26T23:06:32.417Z,12.10
2019-05-26T23:09:20.033Z,12.10
2019-05-26T23:12:07.705Z,12.10
2019-05-26T23:14:55.789Z,12.00
2019-05-26T23:17:43.821Z,12.00
2019-05-26T23:20:31.674Z,12.00
2019-05-26T23:23:19.449Z,11.90
2019-05-26T23:26:07.497Z,11.90
2019-05-26T23:28:55.212Z,11.90
2019-05-26T23:31:43.085Z,11.80
2019-05-26T23:34:31.131Z,11.80
2019-05-26T23:37:19.237Z,11.80
2019-05-26T23:40:07.549Z,11.70
2019-05-26T23:42:55.313Z,11.70
2019-05-26T23:45:43.140Z,11.60
2019-05-26T23:48:31.040Z,11.70
2019-05-26T23:51:18.881Z,11.60
2019-05-26T23:54:06.800Z,11.60
2019-05-26T23:56:54.486Z,11.60
2019-05-26T23:59:42.437Z,11.50
